Charleston, SC

5:51 PM EDT on August 01, 2015 (GMT -0400)
Downtown Charleston | | Change Station
CLOSE
Current Station
Personal Weather Station
Location: Charleston, SC
Elevation: 20 ft
Nearby Weather Stations

Elev 20 ft 32.79 °N, 79.95 °W | Updated 4 seconds ago

Partly Cloudy
Partly Cloudy
83.7 °F
Feels Like 91 °F
N
1.8
Wind Variable Wind from West
Gusts 2.5 mph

Today
High -- | Low -- °F
--% Chance of Precip.
Yesterday
High -- | Low -- °F
Precip. -- in
6:33 AM 8:18 PM
Full, 97% visible
Pressure 29.91 in
Visibility 9.0 miles
Clouds Few 1500 ft
Few 2800 ft
Scattered Clouds 11000 ft
Heat Index 91 °F
Dew Point 74 °F
Humidity 73%
Rainfall 0.17 in
Snow Depth Not available.
UV 3.0 out of 12
Pollen 3.90 out of 12
Air Quality Not available.
Flu Activity Not available.
METAR KJZI 012135Z AUTO 20004KT 9SM FEW015 FEW028 SCT110 28/25 A2991 RMK AO2

More Conditions Fewer Conditions

Pressure 29.91 in
Visibility 9.0 miles
Clouds Few 1500 ft
Few 2800 ft
Scattered Clouds 11000 ft
Heat Index 91 °F
Dew Point 74 °F
Humidity 73%
Rainfall 0.17 in
Snow Depth Not available.
UV 3.0 out of 12
Pollen 3.90 out of 12
Air Quality Not available.
Flu Activity Not available.
METAR KJZI 012135Z AUTO 20004KT 9SM FEW015 FEW028 SCT110 28/25 A2991 RMK AO2

More Conditions Fewer Conditions

10-Day Weather Forecast

×

Almanac

Astronomy

Aug. 01, 2015 Rise Set
Actual Time
Civil Twilight
Nautical Twilight
Astronomical Twilight
Moon
Length of Visible Light
Length of Day
Tomorrow will be .
, % of the Moon is Illuminated

Today's Extremes

State Highs State Lows

Community

WunderPhotos

Upload Photos

1,843,080 photos uploaded!

WunderBlogs® & News

Nearby

Air Quality

  Air Quality AQ Index Pollutant
Not available.

Snow Depth

Station Depth Elevation

Earthquake Activity

City Distance Mag. Time & Date
Minimum magnitude displayed is 2.5.

Coastal Water Temperatures

Place Temperature

Stations

Nearby Weather Stations

Station Location Temp. Windchill Dew Point Humidity Wind Precip. Elev Updated Type